createdAt,value
2023-01-01T00:01:40.053Z,205.70
2023-01-01T00:04:14.636Z,202.87
2023-01-01T00:06:46.427Z,201.03
2023-01-01T00:09:36.930Z,187.40
2023-01-01T00:12:08.684Z,157.90
2023-01-01T00:14:42.906Z,169.83
2023-01-01T00:17:14.641Z,140.03
2023-01-01T00:19:46.350Z,108.07
2023-01-01T00:22:52.041Z,107.67
2023-01-01T00:25:14.369Z,82.83
2023-01-01T00:27:46.107Z,74.47
2023-01-01T00:30:17.910Z,73.17
2023-01-01T00:32:55.333Z,79.30
2023-01-01T00:35:28.215Z,61.43
2023-01-01T00:37:59.916Z,73.27
2023-01-01T00:40:31.694Z,70.97
2023-01-01T00:43:03.394Z,65.97
2023-01-01T00:45:35.172Z,57.83
2023-01-01T00:48:06.977Z,61.63
2023-01-01T00:50:38.673Z,57.10
2023-01-01T00:53:10.451Z,60.63
2023-01-01T00:55:42.932Z,52.20
2023-01-01T00:58:15.510Z,61.47
2023-01-01T01:00:47.405Z,56.07
2023-01-01T01:03:28.556Z,54.77
2023-01-01T01:06:03.113Z,56.77
2023-01-01T01:08:36.359Z,56.80
2023-01-01T01:11:19.943Z,59.57
2023-01-01T01:13:54.290Z,54.10
2023-01-01T01:16:28.594Z,60.97
2023-01-01T01:19:02.973Z,60.40
2023-01-01T01:21:35.186Z,70.50
2023-01-01T01:24:07.515Z,63.87
2023-01-01T01:26:39.447Z,69.13
2023-01-01T01:29:11.155Z,59.30
2023-01-01T01:31:42.912Z,59.03
2023-01-01T01:34:16.479Z,55.47
2023-01-01T01:36:49.595Z,53.30
2023-01-01T01:39:21.290Z,55.30
2023-01-01T01:41:53.010Z,53.17
2023-01-01T01:45:05.766Z,57.93
2023-01-01T01:47:55.727Z,59.87
2023-01-01T01:50:34.321Z,48.20
2023-01-01T01:53:15.778Z,54.13
2023-01-01T01:55:50.966Z,50.20
2023-01-01T01:58:23.255Z,53.53
2023-01-01T02:00:56.148Z,53.77
2023-01-01T02:03:43.496Z,49.47
2023-01-01T02:06:16.171Z,51.53
2023-01-01T02:08:49.885Z,57.03
2023-01-01T02:11:22.194Z,47.37
2023-01-01T02:13:58.722Z,54.50
2023-01-01T02:16:46.264Z,47.83
2023-01-01T02:19:38.737Z,49.70
2023-01-01T02:22:36.362Z,50.97
2023-01-01T02:25:15.313Z,49.30
2023-01-01T02:28:12.195Z,52.77
2023-01-01T02:30:46.607Z,57.50
2023-01-01T02:33:22.818Z,50.77
2023-01-01T02:35:59.245Z,54.67
2023-01-01T02:38:39.469Z,46.87
2023-01-01T02:41:41.481Z,53.43
2023-01-01T02:44:13.590Z,57.57
2023-01-01T02:46:45.327Z,45.63
2023-01-01T02:49:17.104Z,47.73
2023-01-01T02:51:57.585Z,52.40
2023-01-01T02:55:01.262Z,44.00
2023-01-01T02:57:40.981Z,51.37
2023-01-01T03:00:29.398Z,49.17
2023-01-01T03:03:19.401Z,51.93
2023-01-01T03:06:18.847Z,47.63
2023-01-01T03:09:08.597Z,47.43
2023-01-01T03:11:55.297Z,49.00
2023-01-01T03:14:42.103Z,53.00
2023-01-01T03:17:32.892Z,50.70
2023-01-01T03:20:21.183Z,47.17
2023-01-01T03:22:56.155Z,52.47
2023-01-01T03:25:32.390Z,47.10
2023-01-01T03:28:14.884Z,54.47
2023-01-01T03:30:49.414Z,44.83
2023-01-01T03:33:34.763Z,43.07
2023-01-01T03:36:38.810Z,45.73
2023-01-01T03:39:24.487Z,47.70
2023-01-01T03:42:22.357Z,44.03
2023-01-01T03:45:19.901Z,46.77
2023-01-01T03:47:51.958Z,43.93
2023-01-01T03:50:35.344Z,46.70
2023-01-01T03:53:25.471Z,40.63
2023-01-01T03:56:09.091Z,41.77
2023-01-01T03:58:47.630Z,41.80
2023-01-01T04:01:36.306Z,45.03
2023-01-01T04:04:08.307Z,43.40
2023-01-01T04:06:40.023Z,49.50
2023-01-01T04:09:16.091Z,42.60
2023-01-01T04:12:07.036Z,42.57
2023-01-01T04:14:41.290Z,45.10
2023-01-01T04:17:13.619Z,45.13
2023-01-01T04:19:50.075Z,44.90
2023-01-01T04:22:24.938Z,44.67
2023-01-01T04:24:56.712Z,44.20
2023-01-01T04:27:28.670Z,51.47
2023-01-01T04:30:00.404Z,45.80
2023-01-01T04:32:32.264Z,50.47
2023-01-01T04:35:04.848Z,45.77
2023-01-01T04:37:36.730Z,48.87
2023-01-01T04:40:09.783Z,48.90
2023-01-01T04:42:41.910Z,42.53
2023-01-01T04:45:15.263Z,48.43
2023-01-01T04:47:47.215Z,41.60
2023-01-01T04:50:18.924Z,52.43
2023-01-01T04:52:52.431Z,41.30
2023-01-01T04:55:24.768Z,40.37
2023-01-01T04:57:56.488Z,45.10
2023-01-01T05:00:28.206Z,44.40
2023-01-01T05:02:59.939Z,43.43
2023-01-01T05:05:31.675Z,39.63
2023-01-01T05:08:03.404Z,44.00
2023-01-01T05:10:35.138Z,44.13
2023-01-01T05:13:08.995Z,39.43
2023-01-01T05:15:40.696Z,37.47
2023-01-01T05:18:12.419Z,41.97
2023-01-01T05:20:44.133Z,37.90
2023-01-01T05:23:17.745Z,41.20
2023-01-01T05:25:49.496Z,39.30
2023-01-01T05:28:21.410Z,36.40
2023-01-01T05:30:53.848Z,37.60
2023-01-01T05:33:27.693Z,39.87
2023-01-01T05:35:59.456Z,33.67
2023-01-01T05:38:31.684Z,40.20
2023-01-01T05:41:12.230Z,31.90
2023-01-01T05:43:44.283Z,36.73
2023-01-01T05:46:21.860Z,39.33
2023-01-01T05:48:54.303Z,32.20
2023-01-01T05:51:28.005Z,36.47
2023-01-01T05:53:59.845Z,45.23
2023-01-01T05:56:31.578Z,37.23
2023-01-01T05:59:04.291Z,37.37
2023-01-01T06:01:41.755Z,31.77
2023-01-01T06:04:16.892Z,38.80
2023-01-01T06:06:48.686Z,37.23
2023-01-01T06:09:20.398Z,30.77
2023-01-01T06:11:52.082Z,30.40
2023-01-01T06:14:23.812Z,32.33
2023-01-01T06:16:55.581Z,30.77
2023-01-01T06:19:27.458Z,29.80
2023-01-01T06:21:59.278Z,36.30
2023-01-01T06:24:35.492Z,29.20
2023-01-01T06:27:11.388Z,31.60
2023-01-01T06:29:43.394Z,32.77
2023-01-01T06:32:15.124Z,36.30
2023-01-01T06:34:46.901Z,31.67
2023-01-01T06:37:18.853Z,27.63
2023-01-01T06:39:50.636Z,28.83
2023-01-01T06:42:22.364Z,25.77
2023-01-01T06:44:54.162Z,31.17
2023-01-01T06:47:25.977Z,30.77
2023-01-01T06:49:57.696Z,24.33
2023-01-01T06:52:29.561Z,30.67
2023-01-01T06:55:01.282Z,31.77
2023-01-01T06:57:34.524Z,28.80
2023-01-01T07:00:06.971Z,29.23
2023-01-01T07:02:38.755Z,28.43
2023-01-01T07:05:10.581Z,32.07
2023-01-01T07:07:42.304Z,31.73
2023-01-01T07:10:14.041Z,35.33
2023-01-01T07:12:45.808Z,32.10
2023-01-01T07:15:17.510Z,32.33
2023-01-01T07:17:49.309Z,30.63
2023-01-01T07:20:21.144Z,33.83
2023-01-01T07:22:52.857Z,33.17
2023-01-01T07:25:24.672Z,37.97
2023-01-01T07:27:56.387Z,30.07
2023-01-01T07:30:28.115Z,30.77
2023-01-01T07:32:59.871Z,27.43
2023-01-01T07:35:31.647Z,35.37
2023-01-01T07:38:03.364Z,31.10
2023-01-01T07:40:35.153Z,34.73
2023-01-01T07:43:07.454Z,29.00
2023-01-01T07:45:39.271Z,32.20
2023-01-01T07:48:15.085Z,27.77
2023-01-01T07:50:46.827Z,33.20
2023-01-01T07:53:18.586Z,28.00
2023-01-01T07:55:50.347Z,30.00
2023-01-01T07:58:23.019Z,30.27
2023-01-01T08:00:54.812Z,33.20
2023-01-01T08:03:26.655Z,28.13
2023-01-01T08:05:58.405Z,30.73
2023-01-01T08:08:30.134Z,30.07
2023-01-01T08:11:04.103Z,36.27
2023-01-01T08:13:36.113Z,31.47
2023-01-01T08:16:08.100Z,26.60
2023-01-01T08:18:40.052Z,35.13
2023-01-01T08:21:13.529Z,32.27
2023-01-01T08:23:45.269Z,31.87
2023-01-01T08:26:18.332Z,25.70
2023-01-01T08:28:56.840Z,33.83
2023-01-01T08:31:29.037Z,27.43
2023-01-01T08:34:00.791Z,32.37
2023-01-01T08:36:32.999Z,26.77
2023-01-01T08:39:04.767Z,28.17
2023-01-01T08:41:36.618Z,32.27
2023-01-01T08:44:08.322Z,26.17
2023-01-01T08:46:40.108Z,30.83
2023-01-01T08:49:11.847Z,28.10
2023-01-01T08:51:43.584Z,29.80
2023-01-01T08:54:15.349Z,28.77
2023-01-01T08:56:47.235Z,26.83
2023-01-01T08:59:18.997Z,30.47
2023-01-01T09:01:50.950Z,26.77
2023-01-01T09:04:22.813Z,24.00
2023-01-01T09:06:54.859Z,29.70
2023-01-01T09:09:31.355Z,24.97
2023-01-01T09:12:06.220Z,27.23
2023-01-01T09:14:38.089Z,24.73
2023-01-01T09:17:09.805Z,27.93
2023-01-01T09:19:41.610Z,25.90
2023-01-01T09:22:13.783Z,25.83
2023-01-01T09:24:45.501Z,24.37
2023-01-01T09:27:17.250Z,21.50
2023-01-01T09:29:48.965Z,24.40
2023-01-01T09:32:20.764Z,25.37
2023-01-01T09:34:52.806Z,23.77
2023-01-01T09:37:24.721Z,20.47
2023-01-01T09:39:56.823Z,20.60
2023-01-01T09:42:50.651Z,19.67
2023-01-01T09:45:27.834Z,23.10
2023-01-01T09:48:06.949Z,27.83
2023-01-01T09:50:41.463Z,21.40
2023-01-01T09:53:27.256Z,21.97
2023-01-01T09:56:03.624Z,21.10
2023-01-01T09:58:37.959Z,24.93
2023-01-01T10:01:22.548Z,21.37
2023-01-01T10:04:05.056Z,20.90
2023-01-01T10:06:47.065Z,20.93
2023-01-01T10:09:47.848Z,23.73
2023-01-01T10:12:36.558Z,23.43
2023-01-01T10:15:27.703Z,18.70
2023-01-01T10:18:03.099Z,20.30
2023-01-01T10:20:42.438Z,19.37
2023-01-01T10:23:28.328Z,21.27
2023-01-01T10:26:07.483Z,22.23
2023-01-01T10:29:22.685Z,17.33
2023-01-01T10:31:56.851Z,20.83
2023-01-01T10:34:32.174Z,22.43
2023-01-01T10:37:04.062Z,21.77
2023-01-01T10:39:36.158Z,21.50
2023-01-01T10:42:12.998Z,20.87
2023-01-01T10:44:45.147Z,21.07
2023-01-01T10:47:26.771Z,16.60
2023-01-01T10:50:07.886Z,23.57
2023-01-01T10:52:41.201Z,25.77
2023-01-01T10:55:21.635Z,21.07
2023-01-01T10:57:54.183Z,19.50
2023-01-01T11:00:28.494Z,18.37
2023-01-01T11:03:19.453Z,21.07
2023-01-01T11:06:06.058Z,18.53
2023-01-01T11:08:40.974Z,20.03
2023-01-01T11:11:21.463Z,19.83
2023-01-01T11:13:55.879Z,19.00
2023-01-01T11:16:29.037Z,22.17
2023-01-01T11:19:03.877Z,21.97
2023-01-01T11:21:35.963Z,18.37
2023-01-01T11:24:21.597Z,19.93
2023-01-01T11:27:25.023Z,17.77
2023-01-01T11:30:18.641Z,20.53
2023-01-01T11:33:03.748Z,20.23
2023-01-01T11:35:48.462Z,19.30
2023-01-01T11:38:27.723Z,21.83
2023-01-01T11:41:07.170Z,18.77
2023-01-01T11:43:43.942Z,18.00
2023-01-01T11:46:23.755Z,23.77
2023-01-01T11:48:55.687Z,17.87
2023-01-01T11:51:32.860Z,24.53
2023-01-01T11:54:19.096Z,18.37
2023-01-01T11:56:54.759Z,18.30
2023-01-01T11:59:43.712Z,15.80
2023-01-01T12:02:29.954Z,17.33
2023-01-01T12:05:09.778Z,17.10
2023-01-01T12:07:44.919Z,17.10
2023-01-01T12:10:24.546Z,17.37
2023-01-01T12:13:11.051Z,20.90
2023-01-01T12:15:54.954Z,22.03
2023-01-01T12:18:41.538Z,18.50
2023-01-01T12:21:16.293Z,21.27
2023-01-01T12:23:49.414Z,21.10
2023-01-01T12:26:26.435Z,17.47
2023-01-01T12:29:16.694Z,19.50
2023-01-01T12:32:25.390Z,20.97
2023-01-01T12:35:15.802Z,17.50
2023-01-01T12:38:05.578Z,17.43
2023-01-01T12:40:53.901Z,17.20
2023-01-01T12:43:45.876Z,15.97
2023-01-01T12:46:27.168Z,16.70
2023-01-01T12:49:26.390Z,17.73
2023-01-01T12:52:01.202Z,16.60
2023-01-01T12:54:54.589Z,14.97
2023-01-01T12:57:35.605Z,16.23
2023-01-01T13:00:16.426Z,18.03
2023-01-01T13:03:01.886Z,20.47
2023-01-01T13:05:40.241Z,16.07
2023-01-01T13:08:11.965Z,16.40
2023-01-01T13:10:47.457Z,15.20
2023-01-01T13:13:19.621Z,14.17
2023-01-01T13:15:56.602Z,19.87
2023-01-01T13:18:35.804Z,15.63
2023-01-01T13:21:22.488Z,17.17
2023-01-01T13:24:00.672Z,14.20
2023-01-01T13:26:33.333Z,12.57
2023-01-01T13:29:11.640Z,13.53
2023-01-01T13:31:43.363Z,15.07
2023-01-01T13:34:35.562Z,13.73
2023-01-01T13:37:10.549Z,13.17
2023-01-01T13:39:58.610Z,16.07
2023-01-01T13:42:52.513Z,17.33
2023-01-01T13:46:10.057Z,14.17
2023-01-01T13:48:28.377Z,12.83
2023-01-01T13:52:04.654Z,15.37
2023-01-01T13:54:35.389Z,14.77
2023-01-01T13:57:51.805Z,15.57
2023-01-01T14:01:00.915Z,15.13
2023-01-01T14:03:40.317Z,18.03
2023-01-01T14:06:19.824Z,13.07
2023-01-01T14:09:11.174Z,14.53
2023-01-01T14:11:43.000Z,17.10
2023-01-01T14:14:28.527Z,14.87
2023-01-01T14:17:05.566Z,20.13
2023-01-01T14:19:41.144Z,13.00
2023-01-01T14:22:17.413Z,12.33
2023-01-01T14:24:49.632Z,13.57
2023-01-01T14:27:22.202Z,13.87
2023-01-01T14:29:54.490Z,14.27
2023-01-01T14:32:28.866Z,15.63
2023-01-01T14:35:01.899Z,14.83
2023-01-01T14:37:33.825Z,14.23
2023-01-01T14:40:18.010Z,14.73
2023-01-01T14:42:52.278Z,16.60
2023-01-01T14:45:25.397Z,12.90
2023-01-01T14:47:57.766Z,15.60
2023-01-01T14:50:31.991Z,17.97
2023-01-01T14:53:09.113Z,12.57
2023-01-01T14:55:43.734Z,14.53
2023-01-01T14:58:22.378Z,14.60
2023-01-01T15:01:13.028Z,14.03
2023-01-01T15:04:02.966Z,11.77
2023-01-01T15:06:40.800Z,11.73
2023-01-01T15:09:16.444Z,12.90
2023-01-01T15:11:51.051Z,13.03
2023-01-01T15:14:35.917Z,15.40
2023-01-01T15:17:08.830Z,14.63
2023-01-01T15:19:42.761Z,12.53
2023-01-01T15:22:28.288Z,12.67
2023-01-01T15:25:01.052Z,14.40
2023-01-01T15:27:37.047Z,12.90
2023-01-01T15:30:33.681Z,15.20
2023-01-01T15:33:14.092Z,16.07
2023-01-01T15:35:51.079Z,15.13
2023-01-01T15:38:25.981Z,11.97
2023-01-01T15:40:57.879Z,21.27
2023-01-01T15:43:31.672Z,15.87
2023-01-01T15:46:32.168Z,11.90
2023-01-01T15:49:23.745Z,12.83
2023-01-01T15:52:04.904Z,16.00
2023-01-01T15:54:38.959Z,13.23
2023-01-01T15:57:20.143Z,15.27
2023-01-01T15:59:53.662Z,13.77
2023-01-01T16:02:33.506Z,12.70
2023-01-01T16:05:15.779Z,12.07
2023-01-01T16:07:47.773Z,12.23
2023-01-01T16:10:19.457Z,13.87
2023-01-01T16:12:51.189Z,13.43
2023-01-01T16:15:22.910Z,13.47
2023-01-01T16:17:55.235Z,11.53
2023-01-01T16:20:26.969Z,12.33
2023-01-01T16:22:58.640Z,13.03
2023-01-01T16:25:31.655Z,11.67
2023-01-01T16:28:04.149Z,15.43
2023-01-01T16:30:35.861Z,11.80
2023-01-01T16:33:14.777Z,15.80
2023-01-01T16:35:46.487Z,10.53
2023-01-01T16:38:18.206Z,12.70
2023-01-01T16:40:51.476Z,12.43
2023-01-01T16:43:23.164Z,16.63
2023-01-01T16:45:54.847Z,13.10
2023-01-01T16:48:26.537Z,13.13
2023-01-01T16:50:58.245Z,10.37
2023-01-01T16:53:30.338Z,11.20
2023-01-01T16:56:02.002Z,11.57
2023-01-01T16:58:52.119Z,13.33
2023-01-01T17:01:26.920Z,12.40
2023-01-01T17:04:00.396Z,11.93
2023-01-01T17:06:32.552Z,10.10
2023-01-01T17:09:04.309Z,12.60
2023-01-01T17:11:36.612Z,13.83
2023-01-01T17:14:10.396Z,9.77
2023-01-01T17:16:42.153Z,13.90
2023-01-01T17:19:16.665Z,12.43
2023-01-01T17:21:50.921Z,11.93
2023-01-01T17:24:22.743Z,13.60
2023-01-01T17:26:55.311Z,13.07
2023-01-01T17:29:27.037Z,15.57
2023-01-01T17:31:58.852Z,16.17
2023-01-01T17:34:30.584Z,12.87
2023-01-01T17:37:02.295Z,11.37
2023-01-01T17:39:34.004Z,14.37
2023-01-01T17:42:05.757Z,10.97
2023-01-01T17:44:37.519Z,10.33
2023-01-01T17:47:09.217Z,9.37
2023-01-01T17:49:43.186Z,17.40
2023-01-01T17:52:14.931Z,10.87
2023-01-01T17:54:46.635Z,9.03
2023-01-01T17:57:19.081Z,11.17
2023-01-01T17:59:50.828Z,13.50
2023-01-01T18:02:22.743Z,10.57
2023-01-01T18:04:54.707Z,11.53
2023-01-01T18:07:26.395Z,12.50
2023-01-01T18:09:58.103Z,10.73
2023-01-01T18:12:29.849Z,12.40
2023-01-01T18:15:01.564Z,11.77
2023-01-01T18:17:33.303Z,12.30
2023-01-01T18:20:06.596Z,9.33
2023-01-01T18:22:43.089Z,11.97
2023-01-01T18:25:15.191Z,9.53
2023-01-01T18:27:48.996Z,10.10
2023-01-01T18:30:23.378Z,10.17
2023-01-01T18:32:55.136Z,10.70
2023-01-01T18:35:26.861Z,11.90
2023-01-01T18:37:58.561Z,7.77
2023-01-01T18:40:33.002Z,10.07
2023-01-01T18:43:25.280Z,11.27
2023-01-01T18:45:57.500Z,9.30
2023-01-01T18:48:29.217Z,9.17
2023-01-01T18:51:00.902Z,10.07
2023-01-01T18:53:32.670Z,11.07
2023-01-01T18:56:15.242Z,9.07
2023-01-01T18:58:49.300Z,9.83
2023-01-01T19:01:25.059Z,9.30
2023-01-01T19:04:00.816Z,10.33
2023-01-01T19:06:33.258Z,15.80
2023-01-01T19:09:22.518Z,9.17
2023-01-01T19:11:54.827Z,9.73
2023-01-01T19:14:31.827Z,10.00
2023-01-01T19:17:13.241Z,14.90
2023-01-01T19:19:45.192Z,12.10
2023-01-01T19:22:31.181Z,12.37
2023-01-01T19:25:38.752Z,11.50
2023-01-01T19:28:16.611Z,10.10
2023-01-01T19:30:48.374Z,11.10
2023-01-01T19:33:20.114Z,13.93
2023-01-01T19:35:51.996Z,10.47
2023-01-01T19:38:23.827Z,12.23
2023-01-01T19:40:55.602Z,10.70
2023-01-01T19:43:27.368Z,9.27
2023-01-01T19:45:59.300Z,16.57
2023-01-01T19:48:31.209Z,13.63
2023-01-01T19:51:02.938Z,10.90
2023-01-01T19:53:34.678Z,12.90
2023-01-01T19:56:06.770Z,11.60
2023-01-01T19:58:39.329Z,11.43
2023-01-01T20:01:11.728Z,14.07
2023-01-01T20:03:54.060Z,11.77
2023-01-01T20:06:27.543Z,11.17
2023-01-01T20:08:59.196Z,12.47
2023-01-01T20:11:31.966Z,13.03
2023-01-01T20:14:03.826Z,13.17
2023-01-01T20:16:36.387Z,11.87
2023-01-01T20:19:08.157Z,12.00
2023-01-01T20:21:58.308Z,10.77
2023-01-01T20:24:30.054Z,13.37
2023-01-01T20:27:01.799Z,12.40
2023-01-01T20:29:33.542Z,11.87
2023-01-01T20:32:06.432Z,15.10
2023-01-01T20:34:39.340Z,12.60
2023-01-01T20:37:29.911Z,10.20
2023-01-01T20:40:01.791Z,12.53
2023-01-01T20:42:33.649Z,11.20
2023-01-01T20:45:07.191Z,13.37
2023-01-01T20:47:39.201Z,13.07
2023-01-01T20:50:10.951Z,14.30
2023-01-01T20:52:43.178Z,13.97
2023-01-01T20:55:15.135Z,12.77
2023-01-01T20:57:46.857Z,11.13
2023-01-01T21:00:18.708Z,9.70
2023-01-01T21:02:50.482Z,13.63
2023-01-01T21:05:22.231Z,11.57
2023-01-01T21:07:53.985Z,12.03
2023-01-01T21:10:25.683Z,13.80
2023-01-01T21:12:57.600Z,11.50
2023-01-01T21:15:29.303Z,10.57
2023-01-01T21:18:04.269Z,10.07
2023-01-01T21:20:38.254Z,8.20
2023-01-01T21:23:25.498Z,11.27
2023-01-01T21:25:57.673Z,13.23
2023-01-01T21:28:33.777Z,13.23
2023-01-01T21:31:11.006Z,10.23
2023-01-01T21:33:44.548Z,9.30
2023-01-01T21:36:19.044Z,9.03
2023-01-01T21:38:51.940Z,8.77
2023-01-01T21:41:25.182Z,6.70
2023-01-01T21:43:58.532Z,10.07
2023-01-01T21:46:30.265Z,8.50
2023-01-01T21:49:19.273Z,9.97
2023-01-01T21:51:56.749Z,9.13
2023-01-01T21:54:37.728Z,9.23
2023-01-01T21:57:22.080Z,9.13
2023-01-01T21:59:54.794Z,13.80
2023-01-01T22:02:33.756Z,10.33
2023-01-01T22:05:34.064Z,13.07
2023-01-01T22:08:32.371Z,13.93
2023-01-01T22:11:12.803Z,8.57
2023-01-01T22:13:44.502Z,13.43
2023-01-01T22:16:16.571Z,8.73
2023-01-01T22:18:48.347Z,9.43
2023-01-01T22:21:21.947Z,9.77
2023-01-01T22:23:59.224Z,9.63
2023-01-01T22:26:31.139Z,11.83
2023-01-01T22:29:23.075Z,9.70
2023-01-01T22:32:01.755Z,12.83
2023-01-01T22:34:33.500Z,9.50
2023-01-01T22:37:18.539Z,11.97
2023-01-01T22:39:51.201Z,10.67
2023-01-01T22:42:23.251Z,12.53
2023-01-01T22:44:59.009Z,11.87
2023-01-01T22:47:34.252Z,14.70
2023-01-01T22:50:08.694Z,12.17
2023-01-01T22:52:40.405Z,9.30
2023-01-01T22:55:12.072Z,13.80
2023-01-01T22:57:44.365Z,11.97
2023-01-01T23:00:17.944Z,10.10
2023-01-01T23:02:49.779Z,11.43
2023-01-01T23:05:21.490Z,13.03
2023-01-01T23:07:53.356Z,11.00
2023-01-01T23:10:25.130Z,14.23
2023-01-01T23:12:57.028Z,11.90
2023-01-01T23:15:53.862Z,11.30
2023-01-01T23:18:35.972Z,11.50
2023-01-01T23:21:11.647Z,17.03
2023-01-01T23:23:44.361Z,10.87
2023-01-01T23:26:16.393Z,11.17
2023-01-01T23:28:48.193Z,9.63
2023-01-01T23:31:25.137Z,9.93
2023-01-01T23:33:58.621Z,11.40
2023-01-01T23:36:31.339Z,9.67
2023-01-01T23:39:03.352Z,11.07
2023-01-01T23:41:35.181Z,10.87
2023-01-01T23:44:06.919Z,8.63
2023-01-01T23:46:39.477Z,7.93
2023-01-01T23:49:12.749Z,11.00
2023-01-01T23:51:44.653Z,10.03
2023-01-01T23:54:16.613Z,9.13
2023-01-01T23:56:48.429Z,7.67
2023-01-01T23:59:20.174Z,11.03
